sensor_id;sensor_type;location;lat;lon;timestamp;temperature;humidity
67157;SHT31;54086;50.126;8.710;2023-08-21T00:00:55;24.82;80.30
67157;SHT31;54086;50.126;8.710;2023-08-21T00:03:22;24.80;80.26
67157;SHT31;54086;50.126;8.710;2023-08-21T00:05:47;24.63;80.74
67157;SHT31;54086;50.126;8.710;2023-08-21T00:08:13;24.69;80.61
67157;SHT31;54086;50.126;8.710;2023-08-21T00:10:38;24.64;80.70
67157;SHT31;54086;50.126;8.710;2023-08-21T00:13:05;24.57;80.72
67157;SHT31;54086;50.126;8.710;2023-08-21T00:15:30;24.72;80.37
67157;SHT31;54086;50.126;8.710;2023-08-21T00:17:55;24.79;80.14
67157;SHT31;54086;50.126;8.710;2023-08-21T00:20:21;24.80;79.97
67157;SHT31;54086;50.126;8.710;2023-08-21T00:22:46;24.67;80.24
67157;SHT31;54086;50.126;8.710;2023-08-21T00:25:12;24.48;80.83
67157;SHT31;54086;50.126;8.710;2023-08-21T00:27:37;24.45;80.93
67157;SHT31;54086;50.126;8.710;2023-08-21T00:30:03;24.39;81.16
67157;SHT31;54086;50.126;8.710;2023-08-21T00:32:28;24.37;81.18
67157;SHT31;54086;50.126;8.710;2023-08-21T00:34:54;24.30;81.35
67157;SHT31;54086;50.126;8.710;2023-08-21T00:37:19;24.35;81.03
67157;SHT31;54086;50.126;8.710;2023-08-21T00:39:45;24.35;81.19
67157;SHT31;54086;50.126;8.710;2023-08-21T00:42:10;24.14;81.66
67157;SHT31;54086;50.126;8.710;2023-08-21T00:44:36;24.14;81.74
67157;SHT31;54086;50.126;8.710;2023-08-21T00:47:01;24.12;81.65
67157;SHT31;54086;50.126;8.710;2023-08-21T00:49:26;24.18;81.33
67157;SHT31;54086;50.126;8.710;2023-08-21T00:51:53;24.14;81.48
67157;SHT31;54086;50.126;8.710;2023-08-21T00:54:19;24.06;81.70
67157;SHT31;54086;50.126;8.710;2023-08-21T00:56:45;24.09;81.74
67157;SHT31;54086;50.126;8.710;2023-08-21T00:59:11;24.09;81.57
67157;SHT31;54086;50.126;8.710;2023-08-21T01:01:36;24.01;82.01
67157;SHT31;54086;50.126;8.710;2023-08-21T01:04:02;24.01;81.82
67157;SHT31;54086;50.126;8.710;2023-08-21T01:06:28;23.94;81.87
67157;SHT31;54086;50.126;8.710;2023-08-21T01:09:01;23.94;82.10
67157;SHT31;54086;50.126;8.710;2023-08-21T01:11:31;23.87;82.18
67157;SHT31;54086;50.126;8.710;2023-08-21T01:16:43;23.85;82.39
67157;SHT31;54086;50.126;8.710;2023-08-21T01:19:22;23.77;82.49
67157;SHT31;54086;50.126;8.710;2023-08-21T01:21:50;23.79;82.41
67157;SHT31;54086;50.126;8.710;2023-08-21T01:24:19;23.77;82.77
67157;SHT31;54086;50.126;8.710;2023-08-21T01:26:45;23.79;82.51
67157;SHT31;54086;50.126;8.710;2023-08-21T01:29:10;23.87;82.28
67157;SHT31;54086;50.126;8.710;2023-08-21T01:31:37;23.68;82.47
67157;SHT31;54086;50.126;8.710;2023-08-21T01:34:06;23.70;82.57
67157;SHT31;54086;50.126;8.710;2023-08-21T01:36:33;23.63;82.72
67157;SHT31;54086;50.126;8.710;2023-08-21T01:39:00;23.53;82.95
67157;SHT31;54086;50.126;8.710;2023-08-21T01:41:25;23.67;82.63
67157;SHT31;54086;50.126;8.710;2023-08-21T01:43:51;23.65;82.63
67157;SHT31;54086;50.126;8.710;2023-08-21T01:46:18;23.70;82.48
67157;SHT31;54086;50.126;8.710;2023-08-21T01:48:44;23.68;82.51
67157;SHT31;54086;50.126;8.710;2023-08-21T01:51:09;23.67;82.40
67157;SHT31;54086;50.126;8.710;2023-08-21T01:53:35;23.57;82.68
67157;SHT31;54086;50.126;8.710;2023-08-21T01:56:00;23.60;82.62
67157;SHT31;54086;50.126;8.710;2023-08-21T01:58:26;23.57;82.73
67157;SHT31;54086;50.126;8.710;2023-08-21T02:00:51;23.40;83.12
67157;SHT31;54086;50.126;8.710;2023-08-21T02:03:16;23.44;83.11
67157;SHT31;54086;50.126;8.710;2023-08-21T02:05:42;23.46;83.06
67157;SHT31;54086;50.126;8.710;2023-08-21T02:08:12;23.40;83.14
67157;SHT31;54086;50.126;8.710;2023-08-21T02:10:37;23.33;83.38
67157;SHT31;54086;50.126;8.710;2023-08-21T02:13:03;23.36;83.21
67157;SHT31;54086;50.126;8.710;2023-08-21T02:15:28;23.39;83.02
67157;SHT31;54086;50.126;8.710;2023-08-21T02:17:54;23.39;82.78
67157;SHT31;54086;50.126;8.710;2023-08-21T02:20:20;23.39;82.88
67157;SHT31;54086;50.126;8.710;2023-08-21T02:22:45;23.47;82.52
67157;SHT31;54086;50.126;8.710;2023-08-21T02:25:10;23.46;82.42
67157;SHT31;54086;50.126;8.710;2023-08-21T02:27:36;23.39;82.67
67157;SHT31;54086;50.126;8.710;2023-08-21T02:30:01;23.23;83.19
67157;SHT31;54086;50.126;8.710;2023-08-21T02:32:27;23.30;82.96
67157;SHT31;54086;50.126;8.710;2023-08-21T02:34:54;23.27;82.90
67157;SHT31;54086;50.126;8.710;2023-08-21T02:37:19;23.26;82.74
67157;SHT31;54086;50.126;8.710;2023-08-21T02:39:44;23.37;82.60
67157;SHT31;54086;50.126;8.710;2023-08-21T02:42:10;23.33;82.80
67157;SHT31;54086;50.126;8.710;2023-08-21T02:44:35;23.27;82.95
67157;SHT31;54086;50.126;8.710;2023-08-21T02:47:01;23.22;82.91
67157;SHT31;54086;50.126;8.710;2023-08-21T02:49:26;23.39;82.60
67157;SHT31;54086;50.126;8.710;2023-08-21T02:51:51;23.17;82.98
67157;SHT31;54086;50.126;8.710;2023-08-21T02:54:17;23.17;82.97
67157;SHT31;54086;50.126;8.710;2023-08-21T02:56:42;23.23;82.92
67157;SHT31;54086;50.126;8.710;2023-08-21T02:59:07;23.26;82.51
67157;SHT31;54086;50.126;8.710;2023-08-21T03:01:33;23.12;82.84
67157;SHT31;54086;50.126;8.710;2023-08-21T03:04:00;23.15;82.99
67157;SHT31;54086;50.126;8.710;2023-08-21T03:06:25;23.10;82.91
67157;SHT31;54086;50.126;8.710;2023-08-21T03:08:51;23.15;82.73
67157;SHT31;54086;50.126;8.710;2023-08-21T03:11:16;23.24;82.70
67157;SHT31;54086;50.126;8.710;2023-08-21T03:13:41;23.02;82.94
67157;SHT31;54086;50.126;8.710;2023-08-21T03:16:07;23.06;82.88
67157;SHT31;54086;50.126;8.710;2023-08-21T03:18:45;23.16;82.56
67157;SHT31;54086;50.126;8.710;2023-08-21T03:21:18;23.13;82.64
67157;SHT31;54086;50.126;8.710;2023-08-21T03:23:44;23.05;82.64
67157;SHT31;54086;50.126;8.710;2023-08-21T03:26:09;22.99;82.95
67157;SHT31;54086;50.126;8.710;2023-08-21T03:28:34;22.98;82.84
67157;SHT31;54086;50.126;8.710;2023-08-21T03:31:00;22.96;82.91
67157;SHT31;54086;50.126;8.710;2023-08-21T03:33:25;22.94;83.00
67157;SHT31;54086;50.126;8.710;2023-08-21T03:35:53;22.92;83.04
67157;SHT31;54086;50.126;8.710;2023-08-21T03:38:20;22.86;83.14
67157;SHT31;54086;50.126;8.710;2023-08-21T03:40:45;22.94;82.85
67157;SHT31;54086;50.126;8.710;2023-08-21T03:43:11;22.85;83.02
67157;SHT31;54086;50.126;8.710;2023-08-21T03:45:36;22.89;83.03
67157;SHT31;54086;50.126;8.710;2023-08-21T03:48:02;22.85;83.03
67157;SHT31;54086;50.126;8.710;2023-08-21T03:50:27;22.91;82.99
67157;SHT31;54086;50.126;8.710;2023-08-21T03:52:53;22.79;83.21
67157;SHT31;54086;50.126;8.710;2023-08-21T03:55:18;22.69;83.40
67157;SHT31;54086;50.126;8.710;2023-08-21T03:57:43;22.73;83.18
67157;SHT31;54086;50.126;8.710;2023-08-21T04:00:09;22.72;83.42
67157;SHT31;54086;50.126;8.710;2023-08-21T04:02:35;22.71;83.39
67157;SHT31;54086;50.126;8.710;2023-08-21T04:05:00;22.62;83.70
67157;SHT31;54086;50.126;8.710;2023-08-21T04:07:25;22.62;83.57
67157;SHT31;54086;50.126;8.710;2023-08-21T04:09:51;22.62;83.75
67157;SHT31;54086;50.126;8.710;2023-08-21T04:12:16;22.66;83.63
67157;SHT31;54086;50.126;8.710;2023-08-21T04:14:41;22.49;83.85
67157;SHT31;54086;50.126;8.710;2023-08-21T04:17:07;22.57;83.63
67157;SHT31;54086;50.126;8.710;2023-08-21T04:19:32;22.59;83.48
67157;SHT31;54086;50.126;8.710;2023-08-21T04:21:59;22.58;83.56
67157;SHT31;54086;50.126;8.710;2023-08-21T04:24:24;22.55;83.64
67157;SHT31;54086;50.126;8.710;2023-08-21T04:26:49;22.52;83.77
67157;SHT31;54086;50.126;8.710;2023-08-21T04:29:15;22.52;83.65
67157;SHT31;54086;50.126;8.710;2023-08-21T04:31:40;22.49;84.02
67157;SHT31;54086;50.126;8.710;2023-08-21T04:34:05;22.58;83.72
67157;SHT31;54086;50.126;8.710;2023-08-21T04:36:31;22.58;83.41
67157;SHT31;54086;50.126;8.710;2023-08-21T04:38:56;22.49;83.74
67157;SHT31;54086;50.126;8.710;2023-08-21T04:41:21;22.45;83.92
67157;SHT31;54086;50.126;8.710;2023-08-21T04:43:47;22.51;83.82
67157;SHT31;54086;50.126;8.710;2023-08-21T04:46:13;22.47;83.68
67157;SHT31;54086;50.126;8.710;2023-08-21T04:48:38;22.52;83.55
67157;SHT31;54086;50.126;8.710;2023-08-21T04:51:03;22.41;83.82
67157;SHT31;54086;50.126;8.710;2023-08-21T04:53:29;22.47;83.67
67157;SHT31;54086;50.126;8.710;2023-08-21T04:55:55;22.40;83.87
67157;SHT31;54086;50.126;8.710;2023-08-21T04:58:23;22.45;83.71
67157;SHT31;54086;50.126;8.710;2023-08-21T05:00:48;22.43;83.71
67157;SHT31;54086;50.126;8.710;2023-08-21T05:03:14;22.43;83.65
67157;SHT31;54086;50.126;8.710;2023-08-21T05:05:39;22.57;83.31
67157;SHT31;54086;50.126;8.710;2023-08-21T05:08:05;22.49;83.50
67157;SHT31;54086;50.126;8.710;2023-08-21T05:10:30;22.51;83.31
67157;SHT31;54086;50.126;8.710;2023-08-21T05:12:57;22.58;83.19
67157;SHT31;54086;50.126;8.710;2023-08-21T05:15:22;22.55;83.27
67157;SHT31;54086;50.126;8.710;2023-08-21T05:17:48;22.58;83.20
67157;SHT31;54086;50.126;8.710;2023-08-21T05:20:13;22.58;83.25
67157;SHT31;54086;50.126;8.710;2023-08-21T05:22:40;22.68;82.89
67157;SHT31;54086;50.126;8.710;2023-08-21T05:25:06;22.68;82.93
67157;SHT31;54086;50.126;8.710;2023-08-21T05:27:32;22.73;82.70
67157;SHT31;54086;50.126;8.710;2023-08-21T05:29:59;22.73;82.66
67157;SHT31;54086;50.126;8.710;2023-08-21T05:32:24;22.76;82.72
67157;SHT31;54086;50.126;8.710;2023-08-21T05:34:49;22.76;82.63
67157;SHT31;54086;50.126;8.710;2023-08-21T05:37:15;22.88;82.35
67157;SHT31;54086;50.126;8.710;2023-08-21T05:39:40;22.98;82.09
67157;SHT31;54086;50.126;8.710;2023-08-21T05:42:06;23.05;82.08
67157;SHT31;54086;50.126;8.710;2023-08-21T05:44:31;23.09;81.69
67157;SHT31;54086;50.126;8.710;2023-08-21T05:46:56;23.10;81.73
67157;SHT31;54086;50.126;8.710;2023-08-21T05:49:22;23.10;81.86
67157;SHT31;54086;50.126;8.710;2023-08-21T05:51:47;23.13;81.82
67157;SHT31;54086;50.126;8.710;2023-08-21T05:54:12;23.13;81.88
67157;SHT31;54086;50.126;8.710;2023-08-21T05:56:38;23.22;81.51
67157;SHT31;54086;50.126;8.710;2023-08-21T05:59:03;23.34;81.32
67157;SHT31;54086;50.126;8.710;2023-08-21T06:01:29;23.44;80.92
67157;SHT31;54086;50.126;8.710;2023-08-21T06:03:55;23.46;81.06
67157;SHT31;54086;50.126;8.710;2023-08-21T06:06:20;23.47;81.03
67157;SHT31;54086;50.126;8.710;2023-08-21T06:08:45;23.33;81.08
67157;SHT31;54086;50.126;8.710;2023-08-21T06:11:11;23.37;81.33
67157;SHT31;54086;50.126;8.710;2023-08-21T06:13:36;23.37;81.27
67157;SHT31;54086;50.126;8.710;2023-08-21T06:16:01;23.43;81.23
67157;SHT31;54086;50.126;8.710;2023-08-21T06:18:27;23.33;81.67
67157;SHT31;54086;50.126;8.710;2023-08-21T06:20:54;23.44;81.16
67157;SHT31;54086;50.126;8.710;2023-08-21T06:23:20;23.37;81.68
67157;SHT31;54086;50.126;8.710;2023-08-21T06:25:49;23.40;81.62
67157;SHT31;54086;50.126;8.710;2023-08-21T06:28:15;23.50;81.62
67157;SHT31;54086;50.126;8.710;2023-08-21T06:30:41;23.49;81.35
67157;SHT31;54086;50.126;8.710;2023-08-21T06:33:06;23.54;81.66
67157;SHT31;54086;50.126;8.710;2023-08-21T06:35:32;23.58;81.36
67157;SHT31;54086;50.126;8.710;2023-08-21T06:37:57;23.63;81.27
67157;SHT31;54086;50.126;8.710;2023-08-21T06:40:23;23.63;81.83
67157;SHT31;54086;50.126;8.710;2023-08-21T06:42:49;23.67;81.68
67157;SHT31;54086;50.126;8.710;2023-08-21T06:45:16;23.71;81.63
67157;SHT31;54086;50.126;8.710;2023-08-21T06:47:41;23.64;81.61
67157;SHT31;54086;50.126;8.710;2023-08-21T06:50:07;23.79;81.22
67157;SHT31;54086;50.126;8.710;2023-08-21T06:52:35;23.79;81.19
67157;SHT31;54086;50.126;8.710;2023-08-21T06:55:01;23.79;80.97
67157;SHT31;54086;50.126;8.710;2023-08-21T06:57:27;23.95;80.79
67157;SHT31;54086;50.126;8.710;2023-08-21T06:59:52;23.89;80.94
67157;SHT31;54086;50.126;8.710;2023-08-21T07:02:18;23.98;80.69
67157;SHT31;54086;50.126;8.710;2023-08-21T07:04:43;24.15;80.62
67157;SHT31;54086;50.126;8.710;2023-08-21T07:07:09;24.19;80.76
67157;SHT31;54086;50.126;8.710;2023-08-21T07:09:34;24.19;80.59
67157;SHT31;54086;50.126;8.710;2023-08-21T07:12:00;24.15;80.85
67157;SHT31;54086;50.126;8.710;2023-08-21T07:14:27;24.12;81.02
67157;SHT31;54086;50.126;8.710;2023-08-21T07:16:52;24.24;80.66
67157;SHT31;54086;50.126;8.710;2023-08-21T07:19:18;24.40;80.46
67157;SHT31;54086;50.126;8.710;2023-08-21T07:21:43;24.46;80.21
67157;SHT31;54086;50.126;8.710;2023-08-21T07:24:09;24.57;79.75
67157;SHT31;54086;50.126;8.710;2023-08-21T07:26:34;24.67;79.68
67157;SHT31;54086;50.126;8.710;2023-08-21T07:29:00;24.70;79.73
67157;SHT31;54086;50.126;8.710;2023-08-21T07:31:25;24.88;79.32
67157;SHT31;54086;50.126;8.710;2023-08-21T07:33:50;24.94;79.32
67157;SHT31;54086;50.126;8.710;2023-08-21T07:36:16;24.74;79.62
67157;SHT31;54086;50.126;8.710;2023-08-21T07:38:44;24.93;79.47
67157;SHT31;54086;50.126;8.710;2023-08-21T07:41:11;25.08;79.15
67157;SHT31;54086;50.126;8.710;2023-08-21T07:43:41;24.94;78.95
67157;SHT31;54086;50.126;8.710;2023-08-21T07:46:08;24.88;79.16
67157;SHT31;54086;50.126;8.710;2023-08-21T07:48:41;25.04;79.14
67157;SHT31;54086;50.126;8.710;2023-08-21T07:51:06;24.95;78.91
67157;SHT31;54086;50.126;8.710;2023-08-21T07:53:32;24.95;79.08
67157;SHT31;54086;50.126;8.710;2023-08-21T07:55:59;25.28;78.44
67157;SHT31;54086;50.126;8.710;2023-08-21T07:58:25;25.59;78.12
67157;SHT31;54086;50.126;8.710;2023-08-21T08:00:51;25.51;77.87
67157;SHT31;54086;50.126;8.710;2023-08-21T08:03:16;25.69;77.69
67157;SHT31;54086;50.126;8.710;2023-08-21T08:05:41;25.99;77.21
67157;SHT31;54086;50.126;8.710;2023-08-21T08:08:08;25.92;77.33
67157;SHT31;54086;50.126;8.710;2023-08-21T08:10:37;26.39;76.05
67157;SHT31;54086;50.126;8.710;2023-08-21T08:13:03;26.87;74.94
67157;SHT31;54086;50.126;8.710;2023-08-21T08:15:28;27.01;73.81
67157;SHT31;54086;50.126;8.710;2023-08-21T08:17:54;27.76;72.83
67157;SHT31;54086;50.126;8.710;2023-08-21T08:20:20;28.00;72.52
67157;SHT31;54086;50.126;8.710;2023-08-21T08:22:45;28.12;71.96
67157;SHT31;54086;50.126;8.710;2023-08-21T08:25:11;28.07;72.15
67157;SHT31;54086;50.126;8.710;2023-08-21T08:27:37;27.93;72.47
67157;SHT31;54086;50.126;8.710;2023-08-21T08:30:03;28.18;71.83
67157;SHT31;54086;50.126;8.710;2023-08-21T08:32:29;28.52;71.27
67157;SHT31;54086;50.126;8.710;2023-08-21T08:34:55;29.21;70.45
67157;SHT31;54086;50.126;8.710;2023-08-21T08:37:21;28.55;70.72
67157;SHT31;54086;50.126;8.710;2023-08-21T08:39:46;29.03;70.02
67157;SHT31;54086;50.126;8.710;2023-08-21T08:42:13;29.27;69.34
67157;SHT31;54086;50.126;8.710;2023-08-21T08:44:39;29.46;68.89
67157;SHT31;54086;50.126;8.710;2023-08-21T08:47:10;30.05;67.69
67157;SHT31;54086;50.126;8.710;2023-08-21T08:49:39;30.08;67.82
67157;SHT31;54086;50.126;8.710;2023-08-21T08:52:05;29.98;67.80
67157;SHT31;54086;50.126;8.710;2023-08-21T08:54:31;30.12;67.81
67157;SHT31;54086;50.126;8.710;2023-08-21T08:56:57;29.58;68.37
67157;SHT31;54086;50.126;8.710;2023-08-21T08:59:23;29.86;68.01
67157;SHT31;54086;50.126;8.710;2023-08-21T09:01:49;29.64;69.10
67157;SHT31;54086;50.126;8.710;2023-08-21T09:04:14;29.67;68.40
67157;SHT31;54086;50.126;8.710;2023-08-21T09:06:40;29.67;68.64
67157;SHT31;54086;50.126;8.710;2023-08-21T09:09:07;29.54;68.84
67157;SHT31;54086;50.126;8.710;2023-08-21T09:11:33;29.75;68.31
67157;SHT31;54086;50.126;8.710;2023-08-21T09:13:59;29.92;67.90
67157;SHT31;54086;50.126;8.710;2023-08-21T09:16:25;29.93;68.10
67157;SHT31;54086;50.126;8.710;2023-08-21T09:19:00;30.39;66.97
67157;SHT31;54086;50.126;8.710;2023-08-21T09:21:26;30.25;66.94
67157;SHT31;54086;50.126;8.710;2023-08-21T09:23:58;30.19;67.37
67157;SHT31;54086;50.126;8.710;2023-08-21T09:26:30;30.61;66.50
67157;SHT31;54086;50.126;8.710;2023-08-21T09:28:59;30.40;66.56
67157;SHT31;54086;50.126;8.710;2023-08-21T09:31:32;30.63;66.47
67157;SHT31;54086;50.126;8.710;2023-08-21T09:34:02;30.46;66.77
67157;SHT31;54086;50.126;8.710;2023-08-21T09:36:32;30.46;66.50
67157;SHT31;54086;50.126;8.710;2023-08-21T09:39:00;30.59;65.88
67157;SHT31;54086;50.126;8.710;2023-08-21T09:41:26;30.73;65.51
67157;SHT31;54086;50.126;8.710;2023-08-21T09:43:52;30.29;66.71
67157;SHT31;54086;50.126;8.710;2023-08-21T09:46:24;30.04;66.84
67157;SHT31;54086;50.126;8.710;2023-08-21T09:48:51;30.77;66.19
67157;SHT31;54086;50.126;8.710;2023-08-21T09:51:17;31.02;65.68
67157;SHT31;54086;50.126;8.710;2023-08-21T09:53:43;31.08;64.98
67157;SHT31;54086;50.126;8.710;2023-08-21T09:56:10;31.90;63.18
67157;SHT31;54086;50.126;8.710;2023-08-21T09:58:36;31.74;63.63
67157;SHT31;54086;50.126;8.710;2023-08-21T10:01:05;31.10;64.06
67157;SHT31;54086;50.126;8.710;2023-08-21T10:03:41;31.43;63.92
67157;SHT31;54086;50.126;8.710;2023-08-21T10:06:11;31.25;63.50
67157;SHT31;54086;50.126;8.710;2023-08-21T10:08:38;31.38;63.35
67157;SHT31;54086;50.126;8.710;2023-08-21T10:11:07;32.45;61.02
67157;SHT31;54086;50.126;8.710;2023-08-21T10:13:35;32.37;61.36
67157;SHT31;54086;50.126;8.710;2023-08-21T10:16:02;32.52;61.11
67157;SHT31;54086;50.126;8.710;2023-08-21T10:18:32;32.33;61.88
67157;SHT31;54086;50.126;8.710;2023-08-21T10:21:14;32.31;61.66
67157;SHT31;54086;50.126;8.710;2023-08-21T10:23:40;32.17;60.57
67157;SHT31;54086;50.126;8.710;2023-08-21T10:26:07;32.72;59.51
67157;SHT31;54086;50.126;8.710;2023-08-21T10:28:52;32.48;60.24
67157;SHT31;54086;50.126;8.710;2023-08-21T10:34:04;33.09;58.83
67157;SHT31;54086;50.126;8.710;2023-08-21T10:39:26;32.72;60.22
67157;SHT31;54086;50.126;8.710;2023-08-21T10:42:08;32.88;58.74
67157;SHT31;54086;50.126;8.710;2023-08-21T10:49:53;33.64;54.79
67157;SHT31;54086;50.126;8.710;2023-08-21T10:52:23;33.29;54.84
67157;SHT31;54086;50.126;8.710;2023-08-21T10:54:57;32.86;54.29
67157;SHT31;54086;50.126;8.710;2023-08-21T10:57:23;33.27;54.22
67157;SHT31;54086;50.126;8.710;2023-08-21T10:59:57;33.51;54.80
67157;SHT31;54086;50.126;8.710;2023-08-21T11:02:24;33.69;55.01
67157;SHT31;54086;50.126;8.710;2023-08-21T11:04:51;33.77;54.58
67157;SHT31;54086;50.126;8.710;2023-08-21T11:07:16;33.36;55.17
67157;SHT31;54086;50.126;8.710;2023-08-21T11:09:43;34.41;52.95
67157;SHT31;54086;50.126;8.710;2023-08-21T11:12:13;34.19;52.79
67157;SHT31;54086;50.126;8.710;2023-08-21T11:14:40;34.21;52.70
67157;SHT31;54086;50.126;8.710;2023-08-21T11:17:08;33.43;53.95
67157;SHT31;54086;50.126;8.710;2023-08-21T11:19:35;33.53;53.85
67157;SHT31;54086;50.126;8.710;2023-08-21T11:22:01;33.40;53.31
67157;SHT31;54086;50.126;8.710;2023-08-21T11:27:06;34.07;52.68
67157;SHT31;54086;50.126;8.710;2023-08-21T11:29:45;33.63;53.34
67157;SHT31;54086;50.126;8.710;2023-08-21T11:32:15;33.87;53.34
67157;SHT31;54086;50.126;8.710;2023-08-21T11:34:42;33.33;52.70
67157;SHT31;54086;50.126;8.710;2023-08-21T11:37:09;33.59;51.66
67157;SHT31;54086;50.126;8.710;2023-08-21T11:39:47;33.69;51.19
67157;SHT31;54086;50.126;8.710;2023-08-21T11:42:13;33.67;51.31
67157;SHT31;54086;50.126;8.710;2023-08-21T11:44:40;33.88;51.31
67157;SHT31;54086;50.126;8.710;2023-08-21T11:47:06;34.25;50.68
67157;SHT31;54086;50.126;8.710;2023-08-21T11:49:32;33.76;50.03
67157;SHT31;54086;50.126;8.710;2023-08-21T11:51:57;34.00;49.44
67157;SHT31;54086;50.126;8.710;2023-08-21T11:54:23;33.94;50.19
67157;SHT31;54086;50.126;8.710;2023-08-21T11:56:48;33.63;50.66
67157;SHT31;54086;50.126;8.710;2023-08-21T11:59:23;33.49;49.56
67157;SHT31;54086;50.126;8.710;2023-08-21T12:01:51;33.93;49.15
67157;SHT31;54086;50.126;8.710;2023-08-21T12:04:17;34.41;48.64
67157;SHT31;54086;50.126;8.710;2023-08-21T12:06:46;34.45;48.03
67157;SHT31;54086;50.126;8.710;2023-08-21T12:09:12;34.72;47.85
67157;SHT31;54086;50.126;8.710;2023-08-21T12:11:37;35.24;46.64
67157;SHT31;54086;50.126;8.710;2023-08-21T12:14:04;35.50;46.46
67157;SHT31;54086;50.126;8.710;2023-08-21T12:16:30;35.38;45.98
67157;SHT31;54086;50.126;8.710;2023-08-21T12:18:56;35.61;46.03
67157;SHT31;54086;50.126;8.710;2023-08-21T12:21:23;36.26;45.95
67157;SHT31;54086;50.126;8.710;2023-08-21T12:23:50;36.05;46.49
67157;SHT31;54086;50.126;8.710;2023-08-21T12:26:15;36.15;46.96
67157;SHT31;54086;50.126;8.710;2023-08-21T12:28:49;37.18;45.59
67157;SHT31;54086;50.126;8.710;2023-08-21T12:31:14;36.86;46.46
67157;SHT31;54086;50.126;8.710;2023-08-21T12:33:40;35.78;46.96
67157;SHT31;54086;50.126;8.710;2023-08-21T12:36:06;37.11;45.27
67157;SHT31;54086;50.126;8.710;2023-08-21T12:38:33;37.04;45.49
67157;SHT31;54086;50.126;8.710;2023-08-21T12:41:01;36.63;47.77
67157;SHT31;54086;50.126;8.710;2023-08-21T12:43:26;36.12;48.73
67157;SHT31;54086;50.126;8.710;2023-08-21T12:45:52;35.96;49.18
67157;SHT31;54086;50.126;8.710;2023-08-21T12:48:17;36.02;48.39
67157;SHT31;54086;50.126;8.710;2023-08-21T12:50:43;36.28;48.28
67157;SHT31;54086;50.126;8.710;2023-08-21T12:53:08;36.31;48.42
67157;SHT31;54086;50.126;8.710;2023-08-21T12:55:34;35.30;50.19
67157;SHT31;54086;50.126;8.710;2023-08-21T12:57:59;35.37;48.37
67157;SHT31;54086;50.126;8.710;2023-08-21T13:00:24;34.66;47.79
67157;SHT31;54086;50.126;8.710;2023-08-21T13:02:50;35.07;48.20
67157;SHT31;54086;50.126;8.710;2023-08-21T13:05:16;35.00;47.41
67157;SHT31;54086;50.126;8.710;2023-08-21T13:07:41;34.51;47.62
67157;SHT31;54086;50.126;8.710;2023-08-21T13:10:08;33.70;48.85
67157;SHT31;54086;50.126;8.710;2023-08-21T13:12:34;33.78;49.25
67157;SHT31;54086;50.126;8.710;2023-08-21T13:15:00;33.74;49.81
67157;SHT31;54086;50.126;8.710;2023-08-21T13:17:25;34.44;50.29
67157;SHT31;54086;50.126;8.710;2023-08-21T13:19:51;33.96;50.16
67157;SHT31;54086;50.126;8.710;2023-08-21T13:22:17;33.25;51.79
67157;SHT31;54086;50.126;8.710;2023-08-21T13:24:43;33.32;51.56
67157;SHT31;54086;50.126;8.710;2023-08-21T13:27:08;33.39;51.22
67157;SHT31;54086;50.126;8.710;2023-08-21T13:29:34;33.09;51.59
67157;SHT31;54086;50.126;8.710;2023-08-21T13:31:59;34.45;49.25
67157;SHT31;54086;50.126;8.710;2023-08-21T13:34:25;34.68;48.55
67157;SHT31;54086;50.126;8.710;2023-08-21T13:36:50;34.01;50.32
67157;SHT31;54086;50.126;8.710;2023-08-21T13:39:16;35.11;48.22
67157;SHT31;54086;50.126;8.710;2023-08-21T13:41:42;37.00;45.36
67157;SHT31;54086;50.126;8.710;2023-08-21T13:44:07;35.91;46.65
67157;SHT31;54086;50.126;8.710;2023-08-21T13:46:34;35.06;47.96
67157;SHT31;54086;50.126;8.710;2023-08-21T13:48:59;36.19;46.61
67157;SHT31;54086;50.126;8.710;2023-08-21T13:51:25;36.09;46.63
67157;SHT31;54086;50.126;8.710;2023-08-21T13:53:51;34.76;48.61
67157;SHT31;54086;50.126;8.710;2023-08-21T13:56:16;34.60;48.73
67157;SHT31;54086;50.126;8.710;2023-08-21T13:58:42;34.52;49.18
67157;SHT31;54086;50.126;8.710;2023-08-21T14:01:07;34.41;49.90
67157;SHT31;54086;50.126;8.710;2023-08-21T14:03:33;34.25;50.16
67157;SHT31;54086;50.126;8.710;2023-08-21T14:05:59;34.15;50.12
67157;SHT31;54086;50.126;8.710;2023-08-21T14:08:25;33.67;51.49
67157;SHT31;54086;50.126;8.710;2023-08-21T14:10:51;33.77;51.09
67157;SHT31;54086;50.126;8.710;2023-08-21T14:13:16;35.30;49.86
67157;SHT31;54086;50.126;8.710;2023-08-21T14:15:41;35.91;49.74
67157;SHT31;54086;50.126;8.710;2023-08-21T14:18:07;36.36;48.68
67157;SHT31;54086;50.126;8.710;2023-08-21T14:20:32;36.25;48.91
67157;SHT31;54086;50.126;8.710;2023-08-21T14:22:58;35.75;49.69
67157;SHT31;54086;50.126;8.710;2023-08-21T14:25:23;36.29;49.28
67157;SHT31;54086;50.126;8.710;2023-08-21T14:27:49;35.89;49.07
67157;SHT31;54086;50.126;8.710;2023-08-21T14:30:15;37.22;46.64
67157;SHT31;54086;50.126;8.710;2023-08-21T14:32:40;37.52;45.93
67157;SHT31;54086;50.126;8.710;2023-08-21T14:35:07;37.39;45.62
67157;SHT31;54086;50.126;8.710;2023-08-21T14:37:33;37.18;45.90
67157;SHT31;54086;50.126;8.710;2023-08-21T14:39:59;36.95;46.32
67157;SHT31;54086;50.126;8.710;2023-08-21T14:42:24;37.08;46.31
67157;SHT31;54086;50.126;8.710;2023-08-21T14:44:50;37.65;45.65
67157;SHT31;54086;50.126;8.710;2023-08-21T14:47:18;37.68;45.22
67157;SHT31;54086;50.126;8.710;2023-08-21T14:49:44;37.92;45.22
67157;SHT31;54086;50.126;8.710;2023-08-21T14:52:09;37.49;45.60
67157;SHT31;54086;50.126;8.710;2023-08-21T14:54:34;37.55;45.38
67157;SHT31;54086;50.126;8.710;2023-08-21T14:57:03;36.98;46.46
67157;SHT31;54086;50.126;8.710;2023-08-21T14:59:28;37.25;46.35
67157;SHT31;54086;50.126;8.710;2023-08-21T15:01:54;37.30;47.00
67157;SHT31;54086;50.126;8.710;2023-08-21T15:04:20;37.11;47.35
67157;SHT31;54086;50.126;8.710;2023-08-21T15:06:46;36.08;48.64
67157;SHT31;54086;50.126;8.710;2023-08-21T15:09:11;35.95;49.00
67157;SHT31;54086;50.126;8.710;2023-08-21T15:11:38;36.05;48.89
67157;SHT31;54086;50.126;8.710;2023-08-21T15:14:03;36.50;48.34
67157;SHT31;54086;50.126;8.710;2023-08-21T15:16:34;36.25;48.62
67157;SHT31;54086;50.126;8.710;2023-08-21T15:18:59;36.80;48.10
67157;SHT31;54086;50.126;8.710;2023-08-21T15:21:25;36.63;48.24
67157;SHT31;54086;50.126;8.710;2023-08-21T15:23:52;36.09;49.04
67157;SHT31;54086;50.126;8.710;2023-08-21T15:26:17;36.98;47.53
67157;SHT31;54086;50.126;8.710;2023-08-21T15:28:42;37.06;47.25
67157;SHT31;54086;50.126;8.710;2023-08-21T15:31:08;36.80;47.72
67157;SHT31;54086;50.126;8.710;2023-08-21T15:33:34;36.36;47.94
67157;SHT31;54086;50.126;8.710;2023-08-21T15:36:00;36.29;48.21
67157;SHT31;54086;50.126;8.710;2023-08-21T15:38:25;35.84;49.08
67157;SHT31;54086;50.126;8.710;2023-08-21T15:40:51;35.70;49.48